Time;durP1;ratioP1;P1;durP2;ratioP2;P2;SDS_P1;SDS_P2;PMS_P1;PMS_P2;Temp;Humidity;BMP_temperature;BMP_pressure;BME280_temperature;BME280_humidity;BME280_pressure;Samples;Min_cycle;Max_cycle;Signal;HPM_P1;HPM_P2
2022/03/16 00:01:18;;;;;;;;;;;;;;;-5.19;59.89;100931.88;4901852;29;19927;-67
2022/03/16 00:03:44;;;;;;;;;;;;;;;-5.19;59.72;100927.53;4917274;29;19937;-66
2022/03/16 00:06:10;;;;;;;;;;;;;;;-5.21;59.99;100923.38;4918072;29;19927;-67
2022/03/16 00:08:36;;;;;;;;;;;;;;;-5.24;60.49;100929.56;4918003;29;19931;-68
2022/03/16 00:11:01;;;;;;;;;;;;;;;-5.29;60.40;100932.47;4916918;29;20420;-69
2022/03/16 00:13:27;;;;;;;;;;;;;;;-5.32;60.65;100934.41;4901239;29;20346;-67
2022/03/16 00:15:53;;;;;;;;;;;;;;;-5.36;60.88;100936.34;4918313;29;19938;-66
2022/03/16 00:18:21;;;;;;;;;;;;;;;-5.42;60.35;100939.31;4916209;29;19931;-66
2022/03/16 00:20:48;;;;;;;;;;;;;;;-5.45;60.91;100941.28;4918295;29;20397;-66
2022/03/16 00:23:14;;;;;;;;;;;;;;;-5.49;60.63;100941.47;4915740;29;19935;-66
2022/03/16 00:25:39;;;;;;;;;;;;;;;-5.53;61.15;100929.69;4917780;29;20407;-67
2022/03/16 00:28:05;;;;;;;;;;;;;;;-5.54;61.05;100940.91;4917243;29;19931;-67
2022/03/16 00:30:31;;;;;;;;;;;;;;;-5.60;61.42;100933.56;4917759;29;20447;-66
2022/03/16 00:32:56;;;;;;;;;;;;;;;-5.61;61.99;100946.56;4916643;29;19938;-65
2022/03/16 00:35:23;;;;;;;;;;;;;;;-5.67;61.81;100947.78;4917858;29;19942;-66
2022/03/16 00:37:49;;;;;;;;;;;;;;;-5.67;61.83;100940.03;4915507;29;19931;-66
2022/03/16 00:40:14;;;;;;;;;;;;;;;-5.66;61.90;100936.50;4901055;29;19939;-64
2022/03/16 00:42:40;;;;;;;;;;;;;;;-5.69;62.14;100943.63;4917883;29;19931;-66
2022/03/16 00:45:06;;;;;;;;;;;;;;;-5.69;62.11;100951.38;4885100;29;19934;-66
2022/03/16 00:47:33;;;;;;;;;;;;;;;-5.73;62.05;100950.75;4911742;29;19970;-66
2022/03/16 00:49:58;;;;;;;;;;;;;;;-5.73;61.96;100950.75;4866420;29;20370;-68
2022/03/16 00:52:24;;;;;;;;;;;;;;;-5.75;62.13;100948.25;4916885;29;20321;-68
2022/03/16 00:54:51;;;;;;;;;;;;;;;-5.77;62.38;100951.84;4917305;29;19927;-68
2022/03/16 00:57:17;;;;;;;;;;;;;;;-5.81;62.38;100952.97;4917330;29;20304;-67
2022/03/16 00:59:43;;;;;;;;;;;;;;;-5.83;62.51;100953.03;4917136;29;20039;-66
2022/03/16 01:02:08;;;;;;;;;;;;;;;-5.85;62.59;100960.06;4916960;29;20004;-67
2022/03/16 01:04:34;;;;;;;;;;;;;;;-5.86;62.68;100962.72;4917255;29;20021;-67
2022/03/16 01:07:02;;;;;;;;;;;;;;;-5.89;62.79;100957.75;4915826;29;19933;-65
2022/03/16 01:09:27;;;;;;;;;;;;;;;-5.93;62.81;100962.31;4899990;29;20439;-67
2022/03/16 01:11:54;;;;;;;;;;;;;;;-5.92;62.93;100969.09;4900413;29;19938;-66
2022/03/16 01:14:21;;;;;;;;;;;;;;;-5.93;63.05;100964.91;4916984;29;19927;-65
2022/03/16 01:16:47;;;;;;;;;;;;;;;-5.98;63.25;100961.75;4900276;29;19931;-67
2022/03/16 01:19:14;;;;;;;;;;;;;;;-6.00;63.23;100963.59;4915718;29;19931;-66
2022/03/16 01:21:40;;;;;;;;;;;;;;;-6.06;63.45;100954.50;4917008;29;19934;-67
2022/03/16 01:24:08;;;;;;;;;;;;;;;-6.06;63.48;100959.66;4899563;29;19998;-68
2022/03/16 01:26:34;;;;;;;;;;;;;;;-6.06;63.47;100958.78;4915725;29;20436;-66
2022/03/16 01:29:01;;;;;;;;;;;;;;;-6.09;63.89;100958.97;4915750;29;20021;-68
2022/03/16 01:31:27;;;;;;;;;;;;;;;-6.13;64.23;100952.34;4916640;29;19934;-67
2022/03/16 01:33:52;;;;;;;;;;;;;;;-6.12;63.67;100956.59;4896619;29;19927;-69
2022/03/16 01:36:19;;;;;;;;;;;;;;;-6.13;63.95;100958.34;4880912;29;19931;-68
2022/03/16 01:38:45;;;;;;;;;;;;;;;-6.15;63.68;100952.44;4896697;29;19958;-66
2022/03/16 01:41:10;;;;;;;;;;;;;;;-6.15;63.70;100959.34;4897727;29;20409;-65
2022/03/16 01:43:36;;;;;;;;;;;;;;;-6.19;63.99;100959.53;4898051;29;20425;-66
2022/03/16 01:46:02;;;;;;;;;;;;;;;-6.20;63.84;100954.47;4896793;29;19928;-67
2022/03/16 01:48:28;;;;;;;;;;;;;;;-6.21;64.32;100963.13;4904829;29;19931;-67
2022/03/16 01:50:54;;;;;;;;;;;;;;;-6.26;64.30;100960.00;4916623;29;19935;-67
2022/03/16 01:53:20;;;;;;;;;;;;;;;-6.26;63.79;100967.75;4916907;29;19931;-67
2022/03/16 01:55:46;;;;;;;;;;;;;;;-6.28;64.65;100962.66;4915026;29;20440;-66
2022/03/16 01:58:12;;;;;;;;;;;;;;;-6.28;64.47;100957.50;4914073;29;19943;-67
2022/03/16 02:00:39;;;;;;;;;;;;;;;-6.33;64.25;100961.28;4914831;29;20419;-66
2022/03/16 02:03:07;;;;;;;;;;;;;;;-6.36;64.71;100961.44;4914888;29;19931;-68
2022/03/16 02:05:33;;;;;;;;;;;;;;;-6.37;64.31;100958.03;4883381;29;19927;-65
2022/03/16 02:07:59;;;;;;;;;;;;;;;-6.38;64.42;100953.81;4897741;29;19965;-67
2022/03/16 02:10:25;;;;;;;;;;;;;;;-6.36;65.12;100959.69;4896969;29;19971;-65
2022/03/16 02:12:51;;;;;;;;;;;;;;;-6.40;64.63;100951.31;4897608;29;19939;-67
2022/03/16 02:15:17;;;;;;;;;;;;;;;-6.40;64.90;100955.66;4896108;29;19934;-66
2022/03/16 02:17:43;;;;;;;;;;;;;;;-6.44;64.54;100954.16;4897531;29;20034;-67
2022/03/16 02:20:09;;;;;;;;;;;;;;;-6.46;65.03;100954.25;4896829;29;20038;-66
2022/03/16 02:22:36;;;;;;;;;;;;;;;-6.47;64.76;100957.75;4880203;29;20401;-65
2022/03/16 02:25:03;;;;;;;;;;;;;;;-6.50;65.52;100963.09;4886880;29;20404;-66
2022/03/16 02:27:28;;;;;;;;;;;;;;;-6.54;64.83;100956.44;4915793;29;19931;-67
2022/03/16 02:29:54;;;;;;;;;;;;;;;-6.56;65.15;100955.69;4894098;29;19928;-67
2022/03/16 02:32:20;;;;;;;;;;;;;;;-6.55;64.88;100961.72;4895874;29;20309;-69
2022/03/16 02:34:46;;;;;;;;;;;;;;;-6.58;65.66;100965.28;4895774;29;19931;-66
2022/03/16 02:37:12;;;;;;;;;;;;;;;-6.62;64.73;100963.78;4864770;29;19931;-68
2022/03/16 02:39:37;;;;;;;;;;;;;;;-6.61;65.52;100957.72;4900041;29;19928;-66
2022/03/16 02:42:04;;;;;;;;;;;;;;;-6.60;64.83;100961.13;4897143;29;20423;-69
2022/03/16 02:44:29;;;;;;;;;;;;;;;-6.63;65.42;100967.28;4896340;29;19932;-70
2022/03/16 02:46:55;;;;;;;;;;;;;;;-6.63;65.05;100967.28;4913024;29;20021;-67
2022/03/16 02:49:21;;;;;;;;;;;;;;;-6.68;65.62;100967.53;4913428;29;19931;-67
2022/03/16 02:51:46;;;;;;;;;;;;;;;-6.66;64.78;100976.03;4898528;29;19938;-70
2022/03/16 02:54:12;;;;;;;;;;;;;;;-6.67;65.11;100970.97;4915320;29;19927;-70
2022/03/16 02:56:37;;;;;;;;;;;;;;;-6.78;65.24;100966.41;4898460;29;20385;-66
2022/03/16 02:59:03;;;;;;;;;;;;;;;-6.77;65.74;100975.00;4897093;29;19988;-67
2022/03/16 03:01:32;;;;;;;;;;;;;;;-6.77;65.34;100977.56;4896508;29;20411;-70
2022/03/16 03:03:57;;;;;;;;;;;;;;;-6.81;65.98;100976.91;4897982;29;20318;-65
2022/03/16 03:06:23;;;;;;;;;;;;;;;-6.84;65.95;100969.34;4914941;29;20393;-65
2022/03/16 03:08:49;;;;;;;;;;;;;;;-6.79;65.53;100976.81;4916022;29;19934;-65
2022/03/16 03:11:14;;;;;;;;;;;;;;;-6.79;65.97;100975.09;4902552;29;19975;-64
2022/03/16 03:13:40;;;;;;;;;;;;;;;-6.79;66.31;100979.38;4905598;29;19978;-65
2022/03/16 03:16:06;;;;;;;;;;;;;;;-6.80;65.84;100980.31;4914183;29;19931;-65
2022/03/16 03:18:33;;;;;;;;;;;;;;;-6.84;66.45;100976.25;4915794;29;20316;-65
2022/03/16 03:20:59;;;;;;;;;;;;;;;-6.84;65.63;100977.09;4913717;29;20393;-64
2022/03/16 03:23:25;;;;;;;;;;;;;;;-6.85;65.57;100983.19;4914109;29;19938;-65
2022/03/16 03:25:51;;;;;;;;;;;;;;;-6.86;66.51;100986.66;4909022;29;19927;-67
2022/03/16 03:28:16;;;;;;;;;;;;;;;-6.88;65.75;100991.91;4895399;29;19931;-66
2022/03/16 03:30:42;;;;;;;;;;;;;;;-6.92;65.96;100998.13;4913770;29;20377;-65
2022/03/16 03:33:08;;;;;;;;;;;;;;;-6.94;66.37;101000.00;4915610;29;20035;-66
2022/03/16 03:35:34;;;;;;;;;;;;;;;-6.94;65.75;100994.84;4913752;29;20017;-67
2022/03/16 03:38:00;;;;;;;;;;;;;;;-6.97;66.72;100996.72;4915482;29;20361;-66
2022/03/16 03:40:26;;;;;;;;;;;;;;;-7.00;65.75;101002.06;4898224;29;20364;-65
2022/03/16 03:42:51;;;;;;;;;;;;;;;-7.04;66.62;101000.56;4913781;29;19954;-68
2022/03/16 03:45:18;;;;;;;;;;;;;;;-7.06;66.16;101005.78;4915146;29;19950;-65
2022/03/16 03:47:43;;;;;;;;;;;;;;;-7.06;66.35;101000.66;4913904;29;20368;-69
2022/03/16 03:50:09;;;;;;;;;;;;;;;-7.05;66.90;100999.75;4904077;29;19927;-68
2022/03/16 03:52:35;;;;;;;;;;;;;;;-7.04;66.74;101009.13;4896250;29;19971;-70
2022/03/16 03:55:01;;;;;;;;;;;;;;;-6.95;65.94;101015.53;4896202;29;20025;-71
2022/03/16 03:57:28;;;;;;;;;;;;;;;-6.89;66.15;101007.44;4896559;29;19934;-65
2022/03/16 03:59:53;;;;;;;;;;;;;;;-6.76;65.12;101012.78;4916832;29;19927;-66
2022/03/16 04:02:19;;;;;;;;;;;;;;;-6.65;65.00;101018.13;4898969;29;19932;-63
2022/03/16 04:04:44;;;;;;;;;;;;;;;-6.55;64.83;101015.88;4899587;29;19954;-66
2022/03/16 04:07:10;;;;;;;;;;;;;;;-6.45;64.51;101022.97;4899736;29;19979;-67
2022/03/16 04:09:36;;;;;;;;;;;;;;;-6.36;64.02;101020.81;4911482;29;19927;-65
2022/03/16 04:12:01;;;;;;;;;;;;;;;-6.26;63.38;101019.38;4917864;29;20034;-65
2022/03/16 04:14:27;;;;;;;;;;;;;;;-6.19;63.57;101018.06;4917628;29;19927;-71
2022/03/16 04:16:53;;;;;;;;;;;;;;;-6.14;63.42;101022.97;4882180;29;19938;-70
2022/03/16 04:19:19;;;;;;;;;;;;;;;-6.10;63.21;101024.44;4882639;29;19927;-70
2022/03/16 04:21:44;;;;;;;;;;;;;;;-6.07;62.89;101026.84;4913006;29;22648;-69
2022/03/16 04:24:10;;;;;;;;;;;;;;;-6.10;62.87;101024.44;4917003;29;19927;-69
2022/03/16 04:26:35;;;;;;;;;;;;;;;-6.18;63.22;101032.63;4900704;29;20007;-71
2022/03/16 04:29:01;;;;;;;;;;;;;;;-6.13;63.37;101034.97;4916767;29;19983;-70
2022/03/16 04:31:27;;;;;;;;;;;;;;;-6.05;62.49;101036.16;4900592;29;19927;-72
2022/03/16 04:33:52;;;;;;;;;;;;;;;-6.08;62.89;101036.34;4917906;29;19934;-73
2022/03/16 04:36:18;;;;;;;;;;;;;;;-6.15;63.01;101039.38;4917040;29;19982;-71
2022/03/16 04:38:44;;;;;;;;;;;;;;;-6.30;63.13;101041.91;4917587;29;19935;-69
2022/03/16 04:41:10;;;;;;;;;;;;;;;-6.47;63.43;101042.91;4916004;29;19927;-72
2022/03/16 04:43:36;;;;;;;;;;;;;;;-6.56;63.68;101045.97;4912090;29;20080;-66
2022/03/16 04:46:01;;;;;;;;;;;;;;;-6.55;64.04;101052.00;4898221;29;20468;-65
2022/03/16 04:48:27;;;;;;;;;;;;;;;-6.56;64.00;101048.56;4898685;29;19931;-64
2022/03/16 04:50:52;;;;;;;;;;;;;;;-6.55;64.51;101055.41;4898896;29;20038;-68
2022/03/16 04:53:18;;;;;;;;;;;;;;;-6.54;63.92;101051.06;4898834;29;19931;-65
2022/03/16 04:55:44;;;;;;;;;;;;;;;-6.52;64.55;101064.72;4881842;29;19979;-65
2022/03/16 04:58:10;;;;;;;;;;;;;;;-6.51;64.31;101058.63;4898764;29;19936;-66
2022/03/16 05:00:36;;;;;;;;;;;;;;;-6.45;64.31;101055.69;4897330;29;19979;-66
2022/03/16 05:03:02;;;;;;;;;;;;;;;-6.33;64.09;101052.41;4898472;29;19931;-71
2022/03/16 05:06:00;;;;;;;;;;;;;;;-6.24;63.90;101062.22;4897773;29;19927;-61
2022/03/16 05:08:25;;;;;;;;;;;;;;;-6.22;63.58;101057.78;4897796;29;19982;-63
2022/03/16 05:10:51;;;;;;;;;;;;;;;-6.08;63.50;101069.91;4908002;29;19958;-62
2022/03/16 05:13:16;;;;;;;;;;;;;;;-5.94;63.04;101069.13;4901626;29;19940;-63
2022/03/16 05:15:42;;;;;;;;;;;;;;;-5.91;62.74;101060.31;4901022;29;20022;-61
2022/03/16 05:18:07;;;;;;;;;;;;;;;-5.77;62.72;101063.72;4906806;29;20043;-62
2022/03/16 05:20:33;;;;;;;;;;;;;;;-5.57;62.13;101065.13;4896755;29;19951;-62
2022/03/16 05:22:59;;;;;;;;;;;;;;;-5.46;61.61;101066.25;4899980;29;20022;-61
2022/03/16 05:25:30;;;;;;;;;;;;;;;-5.41;61.31;101062.47;4905797;29;20300;-60
2022/03/16 05:27:56;;;;;;;;;;;;;;;-5.36;61.67;101065.56;4894652;29;19995;-63
2022/03/16 05:30:23;;;;;;;;;;;;;;;-5.36;61.46;101068.16;4903891;29;20305;-61
2022/03/16 05:32:52;;;;;;;;;;;;;;;-5.18;61.25;101066.19;4900114;29;19936;-63
2022/03/16 05:35:18;;;;;;;;;;;;;;;-4.98;60.63;101071.91;4901024;29;19933;-63
2022/03/16 05:37:43;;;;;;;;;;;;;;;-4.80;60.62;101070.72;4900904;29;19935;-65
2022/03/16 05:40:10;;;;;;;;;;;;;;;-4.61;59.39;101066.06;4901797;29;20428;-63
2022/03/16 05:42:37;;;;;;;;;;;;;;;-4.42;59.06;101064.88;4910373;29;19937;-64
2022/03/16 05:45:02;;;;;;;;;;;;;;;-4.29;58.50;101064.88;4877771;29;19927;-63
2022/03/16 05:47:28;;;;;;;;;;;;;;;-4.20;57.47;101062.53;4895331;29;19931;-63
2022/03/16 05:49:54;;;;;;;;;;;;;;;-4.07;57.83;101067.72;4899349;29;19927;-63
2022/03/16 05:52:23;;;;;;;;;;;;;;;-3.95;56.96;101076.44;4876892;29;19983;-62
2022/03/16 05:54:49;;;;;;;;;;;;;;;-3.83;56.82;101070.44;4896405;29;19927;-63
2022/03/16 05:57:15;;;;;;;;;;;;;;;-3.75;56.00;101077.72;4909875;29;20002;-64
2022/03/16 05:59:44;;;;;;;;;;;;;;;-3.71;56.39;101076.56;4914664;29;19927;-62
2022/03/16 06:02:10;;;;;;;;;;;;;;;-3.63;55.46;101084.66;4900189;29;20309;-61
2022/03/16 06:04:36;;;;;;;;;;;;;;;-3.59;55.96;101085.25;4901654;29;20401;-63
2022/03/16 06:07:03;;;;;;;;;;;;;;;-3.51;55.56;101090.75;4912934;29;19987;-62
2022/03/16 06:09:28;;;;;;;;;;;;;;;-3.39;55.42;101092.50;4912173;29;19945;-62
2022/03/16 06:11:54;;;;;;;;;;;;;;;-3.30;54.96;101091.06;4914855;29;19935;-62
2022/03/16 06:14:19;;;;;;;;;;;;;;;-3.28;54.20;101086.59;4914409;29;19927;-62
2022/03/16 06:16:47;;;;;;;;;;;;;;;-3.15;54.67;101097.75;4911478;29;19935;-63
2022/03/16 06:19:12;;;;;;;;;;;;;;;-3.08;54.31;101095.59;4912834;29;20014;-62
2022/03/16 06:21:38;;;;;;;;;;;;;;;-3.06;53.93;101093.69;4879909;29;20033;-63
2022/03/16 06:24:04;;;;;;;;;;;;;;;-2.95;54.01;101098.97;4894127;29;19994;-62
2022/03/16 06:26:29;;;;;;;;;;;;;;;-2.88;53.15;101099.34;4900194;29;19927;-63
2022/03/16 06:28:55;;;;;;;;;;;;;;;-2.75;53.37;101098.38;4902444;29;19967;-63
2022/03/16 06:31:21;;;;;;;;;;;;;;;-2.67;52.67;101103.03;4896933;29;19926;-63
2022/03/16 06:33:47;;;;;;;;;;;;;;;-2.62;52.88;101103.56;4908036;29;19931;-61
2022/03/16 06:36:12;;;;;;;;;;;;;;;-2.44;52.70;101105.72;4906231;29;19927;-61
2022/03/16 06:38:38;;;;;;;;;;;;;;;-2.51;52.03;101113.16;4894342;29;19938;-63
2022/03/16 06:41:03;;;;;;;;;;;;;;;-2.44;52.29;101101.38;4894023;29;20045;-61
2022/03/16 06:43:29;;;;;;;;;;;;;;;-2.42;52.58;101106.47;4895033;29;19956;-61
2022/03/16 06:45:54;;;;;;;;;;;;;;;-2.37;51.70;101109.56;4895321;29;19928;-62
2022/03/16 06:48:23;;;;;;;;;;;;;;;-2.31;52.03;101114.31;4894832;29;19987;-59
2022/03/16 06:50:49;;;;;;;;;;;;;;;-2.25;52.06;101118.22;4901541;29;20393;-62
2022/03/16 06:53:15;;;;;;;;;;;;;;;-2.15;51.66;101122.63;4912064;29;19937;-66
2022/03/16 06:55:41;;;;;;;;;;;;;;;-2.12;50.61;101125.03;4912336;29;19927;-60
2022/03/16 06:58:06;;;;;;;;;;;;;;;-2.10;50.53;101132.69;4911701;29;19977;-61
2022/03/16 07:00:32;;;;;;;;;;;;;;;-2.20;50.16;101122.16;4911984;29;19927;-64
2022/03/16 07:03:01;;;;;;;;;;;;;;;-2.09;49.34;101129.13;4910582;29;19931;-62
2022/03/16 07:05:28;;;;;;;;;;;;;;;-2.14;50.17;101133.88;4909555;29;20360;-60
2022/03/16 07:07:54;;;;;;;;;;;;;;;-2.14;50.50;101126.91;4895988;29;19939;-61
2022/03/16 07:10:20;;;;;;;;;;;;;;;-2.14;49.92;101136.47;4909919;29;19927;-63
2022/03/16 07:12:45;;;;;;;;;;;;;;;-2.07;49.51;101132.47;4911384;29;19931;-61
2022/03/16 07:15:11;;;;;;;;;;;;;;;-2.07;49.77;101142.84;4912763;29;19934;-61
2022/03/16 07:17:37;;;;;;;;;;;;;;;-2.03;49.43;101135.66;4912581;29;19974;-62
2022/03/16 07:20:04;;;;;;;;;;;;;;;-2.04;49.45;101142.63;4910739;29;20401;-61
2022/03/16 07:22:29;;;;;;;;;;;;;;;-2.03;48.90;101144.28;4911830;29;20408;-61
2022/03/16 07:24:55;;;;;;;;;;;;;;;-2.08;48.97;101143.81;4909875;29;19927;-62
2022/03/16 07:27:21;;;;;;;;;;;;;;;-2.12;48.46;101131.97;4913328;29;19931;-62
2022/03/16 07:29:47;;;;;;;;;;;;;;;-2.13;48.88;101138.94;4911967;29;19942;-62
2022/03/16 07:32:12;;;;;;;;;;;;;;;-2.15;49.04;101133.00;4894733;29;20346;-63
2022/03/16 07:34:38;;;;;;;;;;;;;;;-2.12;48.42;101134.56;4915133;29;19950;-63
2022/03/16 07:37:04;;;;;;;;;;;;;;;-2.07;47.87;101135.06;4914895;29;19962;-63
2022/03/16 07:39:30;;;;;;;;;;;;;;;-1.99;48.07;101126.72;4906818;29;19927;-61
2022/03/16 07:41:55;;;;;;;;;;;;;;;-2.02;48.65;101135.56;4904637;29;19927;-61
2022/03/16 07:44:21;;;;;;;;;;;;;;;-1.90;48.40;101133.81;4910054;29;19934;-62
2022/03/16 07:46:46;;;;;;;;;;;;;;;-1.86;48.13;101138.66;4911862;29;19935;-61
2022/03/16 07:49:12;;;;;;;;;;;;;;;-1.91;48.32;101133.00;4905949;29;19928;-62
2022/03/16 07:51:38;;;;;;;;;;;;;;;-1.82;47.42;101139.28;4908567;29;20006;-62
2022/03/16 07:54:03;;;;;;;;;;;;;;;-1.83;47.51;101140.22;4903351;29;19987;-64
2022/03/16 07:56:29;;;;;;;;;;;;;;;-1.88;47.31;101135.38;4905110;29;19954;-63
2022/03/16 07:58:56;;;;;;;;;;;;;;;-1.77;47.10;101124.16;4910070;29;20356;-62
2022/03/16 08:01:22;;;;;;;;;;;;;;;-1.91;46.56;101130.41;4915470;29;19927;-63
2022/03/16 08:03:47;;;;;;;;;;;;;;;-1.93;46.28;101128.84;4899216;29;19933;-62
2022/03/16 08:06:13;;;;;;;;;;;;;;;-1.93;46.06;101137.47;4906425;29;20460;-63
2022/03/16 08:08:39;;;;;;;;;;;;;;;-1.85;45.91;101119.53;4898205;29;19938;-61
2022/03/16 08:11:06;;;;;;;;;;;;;;;-1.81;46.40;101121.91;4896121;29;19927;-62
2022/03/16 08:13:31;;;;;;;;;;;;;;;-1.84;46.03;101126.38;4896433;29;19931;-61
2022/03/16 08:15:57;;;;;;;;;;;;;;;-1.81;46.38;101122.75;4896430;29;20403;-61
2022/03/16 08:18:22;;;;;;;;;;;;;;;-1.73;45.65;101129.97;4897510;29;20030;-62
2022/03/16 08:20:47;;;;;;;;;;;;;;;-1.81;45.94;101129.72;4895208;29;20382;-61
2022/03/16 08:23:13;;;;;;;;;;;;;;;-1.82;46.31;101123.69;4898002;29;20459;-62
2022/03/16 08:25:38;;;;;;;;;;;;;;;-1.78;46.28;101122.50;4896358;29;19927;-60
2022/03/16 08:28:04;;;;;;;;;;;;;;;-1.73;46.41;101127.38;4896572;29;19931;-61
2022/03/16 08:30:29;;;;;;;;;;;;;;;-1.70;46.71;101127.97;4896618;29;20022;-61
2022/03/16 08:32:55;;;;;;;;;;;;;;;-1.56;46.14;101115.69;4896633;29;19931;-61
2022/03/16 08:35:22;;;;;;;;;;;;;;;-1.56;46.44;101131.28;4897031;29;19928;-62
2022/03/16 08:37:48;;;;;;;;;;;;;;;-1.47;46.02;101130.59;4896398;29;19932;-61
2022/03/16 08:40:15;;;;;;;;;;;;;;;-1.46;46.53;101132.25;4896371;29;19935;-63
2022/03/16 08:42:41;;;;;;;;;;;;;;;-1.49;45.72;101130.72;4895670;29;20039;-61
2022/03/16 08:45:06;;;;;;;;;;;;;;;-1.48;46.23;101132.34;4893806;29;20757;-63
2022/03/16 08:47:32;;;;;;;;;;;;;;;-1.50;45.96;101147.28;4895378;29;19931;-61
2022/03/16 08:49:57;;;;;;;;;;;;;;;-1.48;46.36;101128.94;4895429;29;20449;-63
2022/03/16 08:52:23;;;;;;;;;;;;;;;-1.53;46.05;101137.09;4895018;29;19943;-64
2022/03/16 08:54:50;;;;;;;;;;;;;;;-1.53;45.70;101133.66;4894251;29;20322;-62
2022/03/16 08:57:15;;;;;;;;;;;;;;;-1.54;45.56;101129.41;4896217;29;20026;-61
2022/03/16 08:59:41;;;;;;;;;;;;;;;-1.50;45.49;101130.81;4894541;29;19991;-61
2022/03/16 09:02:07;;;;;;;;;;;;;;;-1.49;45.11;101135.91;4895577;29;19939;-61
2022/03/16 09:04:34;;;;;;;;;;;;;;;-1.46;45.31;101114.88;4895047;29;19928;-63
2022/03/16 09:06:59;;;;;;;;;;;;;;;-1.35;44.58;101121.88;4894518;29;19931;-61
2022/03/16 09:09:25;;;;;;;;;;;;;;;-1.20;44.01;101127.66;4894654;29;19927;-64
2022/03/16 09:11:51;;;;;;;;;;;;;;;-1.21;43.76;101132.00;4896591;29;19939;-64
2022/03/16 09:14:16;;;;;;;;;;;;;;;-1.16;43.42;101122.09;4893907;29;20278;-62
2022/03/16 09:16:45;;;;;;;;;;;;;;;-1.16;43.20;101116.88;4893939;29;20441;-62
2022/03/16 09:19:15;;;;;;;;;;;;;;;-1.10;43.51;101120.78;4895547;29;19927;-61
2022/03/16 09:21:47;;;;;;;;;;;;;;;-1.17;43.42;101123.03;4895167;29;19983;-62
2022/03/16 09:24:13;;;;;;;;;;;;;;;-1.17;43.18;101115.25;4896221;29;20380;-63
2022/03/16 09:26:39;;;;;;;;;;;;;;;-1.19;43.32;101119.72;4894319;29;20025;-62
2022/03/16 09:29:07;;;;;;;;;;;;;;;-1.10;43.28;101123.38;4896559;29;20293;-63
2022/03/16 09:31:34;;;;;;;;;;;;;;;-1.08;42.80;101123.28;4894160;29;19943;-62
2022/03/16 09:33:59;;;;;;;;;;;;;;;-1.08;42.67;101120.69;4896364;29;20331;-63
2022/03/16 09:36:25;;;;;;;;;;;;;;;-1.03;42.97;101108.97;4894959;29;19928;-63
2022/03/16 09:38:51;;;;;;;;;;;;;;;-1.00;43.29;101113.06;4901907;29;19931;-62
2022/03/16 09:41:16;;;;;;;;;;;;;;;-0.98;42.52;101108.59;4904485;29;19950;-62
2022/03/16 09:43:42;;;;;;;;;;;;;;;-1.03;43.06;101110.72;4895057;29;19935;-63
2022/03/16 09:46:09;;;;;;;;;;;;;;;-0.98;42.03;101116.41;4912362;29;19933;-64
2022/03/16 09:48:34;;;;;;;;;;;;;;;-1.03;41.96;101131.53;4912997;29;20494;-61
2022/03/16 09:51:00;;;;;;;;;;;;;;;-1.02;41.35;101110.59;4906180;29;19928;-62
2022/03/16 09:53:29;;;;;;;;;;;;;;;-1.04;41.63;101124.69;4898088;29;19974;-63
2022/03/16 09:55:55;;;;;;;;;;;;;;;-1.04;41.53;101120.31;4908688;29;19927;-64
2022/03/16 09:58:21;;;;;;;;;;;;;;;-1.02;41.79;101117.59;4901955;29;19999;-62
2022/03/16 10:00:47;;;;;;;;;;;;;;;-0.95;41.72;101110.94;4908088;29;19927;-62
2022/03/16 10:03:15;;;;;;;;;;;;;;;-0.99;41.96;101126.00;4907903;29;20393;-61
2022/03/16 10:05:40;;;;;;;;;;;;;;;-0.87;41.87;101121.59;4913105;29;19926;-62
2022/03/16 10:08:12;;;;;;;;;;;;;;;-0.77;41.87;101116.47;4913779;29;19938;-62
2022/03/16 10:13:27;;;;;;;;;;;;;;;-0.93;41.81;101120.28;4888453;29;20014;-62
2022/03/16 10:15:52;;;;;;;;;;;;;;;-1.10;42.06;101120.78;4909934;29;20043;-63
2022/03/16 10:18:22;;;;;;;;;;;;;;;-1.08;42.03;101129.31;4898351;29;19979;-61
2022/03/16 10:20:48;;;;;;;;;;;;;;;-1.02;41.97;101121.03;4908182;29;20506;-63
2022/03/16 10:23:14;;;;;;;;;;;;;;;-0.90;42.38;101123.63;4903742;29;20647;-63
2022/03/16 10:25:41;;;;;;;;;;;;;;;-0.89;41.54;101122.66;4913857;29;20022;-63
2022/03/16 10:28:11;;;;;;;;;;;;;;;-0.90;40.61;101119.22;4898416;29;19931;-62
2022/03/16 10:30:40;;;;;;;;;;;;;;;-0.78;40.28;101117.44;4908689;29;19927;-63
2022/03/16 10:33:05;;;;;;;;;;;;;;;-0.74;41.12;101113.63;4911653;29;19938;-65
2022/03/16 10:35:31;;;;;;;;;;;;;;;-0.79;40.34;101123.59;4894544;29;19927;-62
2022/03/16 10:38:06;;;;;;;;;;;;;;;-0.75;40.10;101122.41;4903507;29;19931;-62
2022/03/16 10:40:32;;;;;;;;;;;;;;;-0.73;39.62;101128.31;4902009;29;20061;-61
2022/03/16 10:48:25;;;;;;;;;;;;;;;-0.57;39.19;101126.16;4904173;29;20022;-61
2022/03/16 10:50:56;;;;;;;;;;;;;;;-0.58;39.32;101129.72;4902713;29;19964;-61
2022/03/16 10:53:28;;;;;;;;;;;;;;;-0.53;39.22;101119.75;4906593;29;19938;-62
2022/03/16 10:55:55;;;;;;;;;;;;;;;-0.55;38.98;101129.47;4904263;29;20134;-61
2022/03/16 10:58:21;;;;;;;;;;;;;;;-0.58;39.15;101119.28;4903121;29;19931;-61
2022/03/16 11:00:47;;;;;;;;;;;;;;;-0.52;39.51;101117.97;4901751;29;19931;-64
2022/03/16 11:03:17;;;;;;;;;;;;;;;-0.53;39.54;101113.69;4902133;29;19949;-61
2022/03/16 11:05:43;;;;;;;;;;;;;;;-0.55;39.50;101113.84;4899840;29;20384;-62
2022/03/16 11:08:09;;;;;;;;;;;;;;;-0.56;39.73;101109.59;4906357;29;19938;-63
2022/03/16 11:10:38;;;;;;;;;;;;;;;-0.50;39.74;101105.63;4907651;29;20022;-63
2022/03/16 11:15:50;;;;;;;;;;;;;;;-0.43;38.60;101106.81;4911516;29;20248;-63
2022/03/16 11:18:19;;;;;;;;;;;;;;;-0.47;38.85;101102.81;4909331;29;19931;-62
2022/03/16 11:20:49;;;;;;;;;;;;;;;-0.53;39.39;101098.91;4909138;29;20012;-62
2022/03/16 11:26:14;;;;;;;;;;;;;;;-0.45;39.01;101085.25;4909862;29;20408;-61
2022/03/16 11:28:50;;;;;;;;;;;;;;;-0.51;38.65;101107.41;4907725;29;19934;-62
2022/03/16 11:31:15;;;;;;;;;;;;;;;-0.51;38.70;101086.56;4906710;29;20082;-62
2022/03/16 11:33:50;;;;;;;;;;;;;;;-0.44;38.18;101094.75;4905352;29;20022;-62
2022/03/16 11:36:27;;;;;;;;;;;;;;;-0.42;38.51;101089.41;4906048;29;19952;-63
2022/03/16 11:38:52;;;;;;;;;;;;;;;-0.48;38.74;101088.09;4910989;29;20317;-62
2022/03/16 11:41:24;;;;;;;;;;;;;;;-0.47;38.05;101095.81;4904782;29;19927;-63
2022/03/16 11:43:56;;;;;;;;;;;;;;;-0.47;37.28;101092.38;4907383;29;20333;-63
2022/03/16 11:46:29;;;;;;;;;;;;;;;-0.50;38.43;101092.59;4913402;29;19978;-61
2022/03/16 11:49:02;;;;;;;;;;;;;;;-0.37;38.32;101085.47;4916838;29;19935;-61
2022/03/16 11:51:28;;;;;;;;;;;;;;;-0.25;38.02;101091.47;4907737;29;19927;-61
2022/03/16 11:54:01;;;;;;;;;;;;;;;-0.26;38.87;101097.63;4906542;29;20380;-61
2022/03/16 11:56:36;;;;;;;;;;;;;;;-0.17;38.04;101088.22;4906254;29;19923;-63
2022/03/16 11:59:09;;;;;;;;;;;;;;;-0.34;38.65;101103.47;4892270;29;19934;-61
2022/03/16 12:01:37;;;;;;;;;;;;;;;-0.28;38.38;101094.31;4907071;29;20169;-63
2022/03/16 12:04:19;;;;;;;;;;;;;;;-0.24;38.10;101088.75;4874500;29;19927;-62
2022/03/16 12:06:48;;;;;;;;;;;;;;;-0.41;38.33;101078.88;4907625;29;19930;-62
2022/03/16 12:09:18;;;;;;;;;;;;;;;-0.32;38.99;101072.91;4905043;29;19986;-62
2022/03/16 12:15:09;;;;;;;;;;;;;;;-0.37;39.21;101080.25;4905192;29;20298;-62
2022/03/16 12:17:36;;;;;;;;;;;;;;;-0.51;39.06;101070.13;4880332;29;19931;-62
2022/03/16 12:20:16;;;;;;;;;;;;;;;-0.46;39.56;101071.41;4891102;29;19928;-63
2022/03/16 12:22:46;;;;;;;;;;;;;;;-0.36;39.32;101075.88;4875171;29;20293;-61
2022/03/16 12:25:27;;;;;;;;;;;;;;;-0.32;39.06;101072.06;4904328;29;20385;-66
2022/03/16 12:30:50;;;;;;;;;;;;;;;-0.35;38.77;101073.16;4902674;29;20067;-62
2022/03/16 12:33:20;;;;;;;;;;;;;;;-0.36;39.03;101075.88;4874112;29;20422;-63
2022/03/16 12:35:47;;;;;;;;;;;;;;;-0.43;39.33;101077.34;4901207;29;19927;-62
2022/03/16 12:38:12;;;;;;;;;;;;;;;-0.48;39.57;101080.28;4901541;29;19931;-59
2022/03/16 12:42:31;;;;;;;;;;;;;;;-0.50;39.15;101084.78;4900505;29;19946;-64
2022/03/16 12:43:26;;;;;;;;;;;;;;;-0.49;38.99;101074.25;4907933;29;19936;-65
2022/03/16 12:45:52;;;;;;;;;;;;;;;-0.51;38.63;101083.16;4901613;29;19927;-62
2022/03/16 12:48:19;;;;;;;;;;;;;;;-0.49;38.97;101069.06;4904660;29;20501;-62
2022/03/16 12:50:47;;;;;;;;;;;;;;;-0.50;38.36;101072.63;4873053;29;19927;-61
2022/03/16 12:53:13;;;;;;;;;;;;;;;-0.47;38.30;101076.75;4904160;29;20019;-62